Time;durP1;ratioP1;P1;durP2;ratioP2;P2;SDS_P1;SDS_P2;PMS_P1;PMS_P2;Temp;Humidity;BMP_temperature;BMP_pressure;BME280_temperature;BME280_humidity;BME280_pressure;Samples;Min_cycle;Max_cycle;Signal;HPM_P1;HPM_P2
2021/05/14 00:00:48;;;;;;;7.18;5.53;;;;;;;;;;2073582;28;20542;-49
2021/05/14 00:01:49;;;;;;;6.68;6.07;;;;;;;;;;2071943;28;20196;-48
2021/05/14 00:02:49;;;;;;;7.05;6.20;;;;;;;;;;2079282;28;20184;-52
2021/05/14 00:03:49;;;;;;;6.90;6.30;;;;;;;;;;2081026;28;20263;-51
2021/05/14 00:04:50;;;;;;;6.50;5.90;;;;;;;;;;2065963;28;20673;-53
2021/05/14 00:05:50;;;;;;;6.57;5.68;;;;;;;;;;2058593;28;20326;-49
2021/05/14 00:06:50;;;;;;;8.65;6.60;;;;;;;;;;2073491;28;20203;-49
2021/05/14 00:07:51;;;;;;;7.53;6.68;;;;;;;;;;2075057;28;20172;-50
2021/05/14 00:08:51;;;;;;;7.55;6.85;;;;;;;;;;2072651;28;20180;-49
2021/05/14 00:09:52;;;;;;;7.60;6.90;;;;;;;;;;2072678;28;20230;-50
2021/05/14 00:10:53;;;;;;;8.45;6.55;;;;;;;;;;2072940;28;20188;-49
2021/05/14 00:11:53;;;;;;;6.78;6.15;;;;;;;;;;2072509;28;20235;-49
2021/05/14 00:12:53;;;;;;;7.45;6.75;;;;;;;;;;2070991;28;20572;-50
2021/05/14 00:13:56;;;;;;;7.63;6.85;;;;;;;;;;2071350;28;20172;-49
2021/05/14 00:14:56;;;;;;;7.88;7.05;;;;;;;;;;2072561;28;20268;-51
2021/05/14 00:15:56;;;;;;;7.40;6.60;;;;;;;;;;2070128;28;20231;-51
2021/05/14 00:16:57;;;;;;;7.18;6.28;;;;;;;;;;2072460;28;20290;-50
2021/05/14 00:17:57;;;;;;;8.25;7.45;;;;;;;;;;2072489;28;20214;-49
2021/05/14 00:18:58;;;;;;;9.25;6.88;;;;;;;;;;2073374;28;20671;-52
2021/05/14 00:19:58;;;;;;;7.57;6.43;;;;;;;;;;2072803;28;20165;-52
2021/05/14 00:20:59;;;;;;;9.73;8.02;;;;;;;;;;2072845;28;20183;-51
2021/05/14 00:21:59;;;;;;;8.45;7.32;;;;;;;;;;2061782;28;20188;-50
2021/05/14 00:22:59;;;;;;;8.80;7.65;;;;;;;;;;2056606;28;20635;-50
2021/05/14 00:24:00;;;;;;;8.95;8.00;;;;;;;;;;2064174;28;20180;-49
2021/05/14 00:25:00;;;;;;;8.95;8.05;;;;;;;;;;2055245;28;20166;-49
2021/05/14 00:26:00;;;;;;;9.30;8.32;;;;;;;;;;2064961;28;20165;-50
2021/05/14 00:27:01;;;;;;;9.73;8.48;;;;;;;;;;2064516;28;20228;-49
2021/05/14 00:28:01;;;;;;;9.07;7.93;;;;;;;;;;2064684;28;20201;-52
2021/05/14 00:29:01;;;;;;;11.00;9.52;;;;;;;;;;2072586;28;20660;-50
2021/05/14 00:30:02;;;;;;;10.98;8.85;;;;;;;;;;2071450;28;20657;-51
2021/05/14 00:31:03;;;;;;;9.77;8.82;;;;;;;;;;2071538;28;20235;-48
2021/05/14 00:32:03;;;;;;;9.73;8.73;;;;;;;;;;2073437;28;20617;-49
2021/05/14 00:33:03;;;;;;;12.80;9.88;;;;;;;;;;2073265;28;20177;-52
2021/05/14 00:34:04;;;;;;;9.30;8.40;;;;;;;;;;2072746;28;20208;-52
2021/05/14 00:35:05;;;;;;;9.60;8.80;;;;;;;;;;2073515;28;20188;-49
2021/05/14 00:36:06;;;;;;;10.88;9.13;;;;;;;;;;2072502;28;20172;-51
2021/05/14 00:37:06;;;;;;;9.55;8.60;;;;;;;;;;2072869;28;20229;-49
2021/05/14 00:38:06;;;;;;;10.77;9.13;;;;;;;;;;2074109;28;20216;-51
2021/05/14 00:39:07;;;;;;;10.07;8.30;;;;;;;;;;2073048;28;20268;-48
2021/05/14 00:40:07;;;;;;;10.48;9.40;;;;;;;;;;2073248;28;20165;-50
2021/05/14 00:41:07;;;;;;;13.10;9.73;;;;;;;;;;2064491;28;21788;-48
2021/05/14 00:42:08;;;;;;;10.15;9.00;;;;;;;;;;2064805;28;20177;-51
2021/05/14 00:43:08;;;;;;;9.77;8.77;;;;;;;;;;2069196;28;20260;-49
2021/05/14 00:44:28;;;;;;;12.18;9.10;;;;;;;;;;2073001;28;20180;-49
2021/05/14 00:45:28;;;;;;;10.85;8.50;;;;;;;;;;2071123;28;20649;-49
2021/05/14 00:46:29;;;;;;;9.77;8.85;;;;;;;;;;2073001;28;20237;-48
2021/05/14 00:47:29;;;;;;;15.43;9.25;;;;;;;;;;2066005;28;20338;-49
2021/05/14 00:48:29;;;;;;;12.27;8.63;;;;;;;;;;2074415;28;20251;-48
2021/05/14 00:49:30;;;;;;;10.40;9.32;;;;;;;;;;2073408;28;20180;-48
2021/05/14 00:50:30;;;;;;;9.85;8.95;;;;;;;;;;2073953;28;20212;-51
2021/05/14 00:51:30;;;;;;;9.65;8.68;;;;;;;;;;2076351;28;20257;-59
2021/05/14 00:52:31;;;;;;;10.27;9.23;;;;;;;;;;2077701;28;20209;-51
2021/05/14 00:53:31;;;;;;;8.98;8.18;;;;;;;;;;2075803;28;20259;-50
2021/05/14 00:54:32;;;;;;;9.95;8.23;;;;;;;;;;2076649;28;20203;-50
2021/05/14 00:55:32;;;;;;;9.38;8.45;;;;;;;;;;2074724;28;20277;-50
2021/05/14 00:56:33;;;;;;;9.93;8.43;;;;;;;;;;2066857;28;20655;-53
2021/05/14 00:57:34;;;;;;;10.68;9.32;;;;;;;;;;2069228;28;20197;-48
2021/05/14 00:58:34;;;;;;;10.10;9.10;;;;;;;;;;2077550;28;20208;-54
2021/05/14 00:59:34;;;;;;;11.13;9.50;;;;;;;;;;2078131;28;20222;-50
2021/05/14 01:00:35;;;;;;;13.77;10.23;;;;;;;;;;2078595;28;20634;-49
2021/05/14 01:01:35;;;;;;;10.98;9.77;;;;;;;;;;2079607;28;20168;-53
2021/05/14 01:02:35;;;;;;;11.80;8.68;;;;;;;;;;2077029;28;20196;-52
2021/05/14 01:03:36;;;;;;;9.82;8.85;;;;;;;;;;2073531;28;20185;-50
2021/05/14 01:04:37;;;;;;;10.25;8.73;;;;;;;;;;2072607;28;20416;-48
2021/05/14 01:05:37;;;;;;;10.20;8.77;;;;;;;;;;2073460;28;20193;-48
2021/05/14 01:06:37;;;;;;;10.43;9.43;;;;;;;;;;2074342;28;20264;-51
2021/05/14 01:07:38;;;;;;;10.07;8.88;;;;;;;;;;2061999;28;20186;-50
2021/05/14 01:08:38;;;;;;;10.70;9.57;;;;;;;;;;2064519;28;20249;-49
2021/05/14 01:09:39;;;;;;;12.88;10.85;;;;;;;;;;2084678;28;20191;-50
2021/05/14 01:10:39;;;;;;;13.13;9.75;;;;;;;;;;2077105;28;20199;-54
2021/05/14 01:11:40;;;;;;;12.15;10.60;;;;;;;;;;2077757;28;20549;-52
2021/05/14 01:12:40;;;;;;;12.45;11.05;;;;;;;;;;2077834;28;20173;-52
2021/05/14 01:13:41;;;;;;;12.25;10.93;;;;;;;;;;2076961;28;20204;-50
2021/05/14 01:14:41;;;;;;;12.38;11.07;;;;;;;;;;2078331;28;20657;-53
2021/05/14 01:15:42;;;;;;;13.45;11.85;;;;;;;;;;2077991;28;20269;-60
2021/05/14 01:16:42;;;;;;;13.00;11.57;;;;;;;;;;2077812;28;20180;-53
2021/05/14 01:17:42;;;;;;;13.27;11.88;;;;;;;;;;2073913;28;20183;-50
2021/05/14 01:18:43;;;;;;;15.13;12.52;;;;;;;;;;2073623;28;20259;-51
2021/05/14 01:19:43;;;;;;;15.13;12.90;;;;;;;;;;2075420;28;20183;-49
2021/05/14 01:20:43;;;;;;;15.48;13.77;;;;;;;;;;2075195;28;20173;-50
2021/05/14 01:21:44;;;;;;;14.82;12.98;;;;;;;;;;2063697;28;20646;-50
2021/05/14 01:22:44;;;;;;;15.80;14.20;;;;;;;;;;2065057;28;20173;-52
2021/05/14 01:23:45;;;;;;;16.92;14.18;;;;;;;;;;2072978;28;20173;-51
2021/05/14 01:24:45;;;;;;;15.13;13.15;;;;;;;;;;2071665;28;20647;-50
2021/05/14 01:25:46;;;;;;;15.07;13.52;;;;;;;;;;2074639;28;20189;-48
2021/05/14 01:26:47;;;;;;;15.93;14.25;;;;;;;;;;2066364;28;20173;-50
2021/05/14 01:27:47;;;;;;;15.27;13.45;;;;;;;;;;2068242;28;20178;-51
2021/05/14 01:28:47;;;;;;;15.68;13.98;;;;;;;;;;2078186;28;20553;-52
2021/05/14 01:29:48;;;;;;;17.52;15.02;;;;;;;;;;2074647;28;20193;-50
2021/05/14 01:30:48;;;;;;;17.23;14.75;;;;;;;;;;2078682;28;20169;-49
2021/05/14 01:31:49;;;;;;;18.58;15.68;;;;;;;;;;2073966;28;20176;-50
2021/05/14 01:32:50;;;;;;;18.08;14.95;;;;;;;;;;2075041;28;20264;-51
2021/05/14 01:33:50;;;;;;;16.13;13.07;;;;;;;;;;2066367;28;20174;-50
2021/05/14 01:34:51;;;;;;;19.20;14.73;;;;;;;;;;2063853;28;20232;-48
2021/05/14 01:35:51;;;;;;;16.10;13.68;;;;;;;;;;2073271;28;20325;-52
2021/05/14 01:36:51;;;;;;;19.48;14.43;;;;;;;;;;2073785;28;20173;-50
2021/05/14 01:37:52;;;;;;;18.38;14.57;;;;;;;;;;2074621;28;20255;-50
2021/05/14 01:38:52;;;;;;;14.63;13.18;;;;;;;;;;2075295;28;20213;-50
2021/05/14 01:39:52;;;;;;;16.38;14.68;;;;;;;;;;2075732;28;20669;-49
2021/05/14 01:40:53;;;;;;;18.15;14.13;;;;;;;;;;2074548;28;20248;-51
2021/05/14 01:41:53;;;;;;;16.92;14.77;;;;;;;;;;2074302;28;20810;-49
2021/05/14 01:42:54;;;;;;;17.20;14.75;;;;;;;;;;2072032;28;20177;-50
2021/05/14 01:43:54;;;;;;;17.77;15.65;;;;;;;;;;2074880;28;20165;-47
2021/05/14 01:44:54;;;;;;;17.65;15.20;;;;;;;;;;2074249;28;20641;-50
2021/05/14 01:45:55;;;;;;;18.00;14.13;;;;;;;;;;2073445;28;20263;-50
2021/05/14 01:46:55;;;;;;;17.88;14.90;;;;;;;;;;2072869;28;20228;-51
2021/05/14 01:47:55;;;;;;;16.42;14.63;;;;;;;;;;2073923;28;20188;-48
2021/05/14 01:48:56;;;;;;;20.38;14.80;;;;;;;;;;2073358;28;20173;-49
2021/05/14 01:49:56;;;;;;;18.42;16.38;;;;;;;;;;2073147;28;20176;-52
2021/05/14 01:51:16;;;;;;;17.42;15.00;;;;;;;;;;2072796;28;20177;-50
2021/05/14 01:52:17;;;;;;;18.60;15.18;;;;;;;;;;2072932;28;20608;-50
2021/05/14 01:53:17;;;;;;;20.55;15.93;;;;;;;;;;2072550;28;20244;-49
2021/05/14 01:54:18;;;;;;;21.80;16.27;;;;;;;;;;2073425;28;20181;-50
2021/05/14 01:55:18;;;;;;;19.85;16.50;;;;;;;;;;2080462;28;20264;-49
2021/05/14 01:56:19;;;;;;;19.90;16.35;;;;;;;;;;2073512;28;20556;-52
2021/05/14 01:57:19;;;;;;;20.30;16.92;;;;;;;;;;2073421;28;20168;-49
2021/05/14 01:58:19;;;;;;;20.65;16.38;;;;;;;;;;2072564;28;20209;-52
2021/05/14 01:59:20;;;;;;;21.58;16.27;;;;;;;;;;2074274;28;20790;-49
2021/05/14 02:00:20;;;;;;;21.95;16.80;;;;;;;;;;2071659;28;20223;-52
2021/05/14 02:01:21;;;;;;;19.02;16.35;;;;;;;;;;2074124;28;20177;-52
2021/05/14 02:02:22;;;;;;;20.98;16.73;;;;;;;;;;2073174;28;20197;-48
2021/05/14 02:03:22;;;;;;;22.17;17.83;;;;;;;;;;2073180;28;20215;-47
2021/05/14 02:04:23;;;;;;;21.98;17.42;;;;;;;;;;2073444;28;20180;-48
2021/05/14 02:05:23;;;;;;;21.83;17.17;;;;;;;;;;2073508;28;20215;-52
2021/05/14 02:06:23;;;;;;;21.38;17.55;;;;;;;;;;2074193;28;20177;-50
2021/05/14 02:07:24;;;;;;;23.10;18.05;;;;;;;;;;2073481;28;20184;-50
2021/05/14 02:08:24;;;;;;;20.73;17.92;;;;;;;;;;2073329;28;20591;-49
2021/05/14 02:09:24;;;;;;;23.23;18.45;;;;;;;;;;2073685;28;20179;-48
2021/05/14 02:10:25;;;;;;;22.27;17.67;;;;;;;;;;2065976;28;20189;-49
2021/05/14 02:11:25;;;;;;;22.98;18.55;;;;;;;;;;2066672;28;20269;-56
2021/05/14 02:12:26;;;;;;;20.15;17.73;;;;;;;;;;2065787;28;20177;-55
2021/05/14 02:13:26;;;;;;;22.63;17.80;;;;;;;;;;2066894;28;20184;-54
2021/05/14 02:14:26;;;;;;;22.08;18.70;;;;;;;;;;2075549;28;20209;-49
2021/05/14 02:15:27;;;;;;;23.73;17.65;;;;;;;;;;2074691;28;20177;-52
2021/05/14 02:16:27;;;;;;;22.55;18.02;;;;;;;;;;2074772;28;20673;-49
2021/05/14 02:17:28;;;;;;;21.60;17.60;;;;;;;;;;2075116;28;20181;-55
2021/05/14 02:18:28;;;;;;;28.08;19.25;;;;;;;;;;2067110;28;20228;-49
2021/05/14 02:19:28;;;;;;;26.00;19.50;;;;;;;;;;2075018;28;20217;-50
2021/05/14 02:20:29;;;;;;;24.95;19.58;;;;;;;;;;2074705;28;20164;-51
2021/05/14 02:21:29;;;;;;;22.23;18.70;;;;;;;;;;2065832;28;20192;-49
2021/05/14 02:22:30;;;;;;;25.38;20.35;;;;;;;;;;2063956;28;20264;-50
2021/05/14 02:23:30;;;;;;;24.38;19.55;;;;;;;;;;2073404;28;20408;-51
2021/05/14 02:24:31;;;;;;;27.48;20.85;;;;;;;;;;2074137;28;20172;-50
2021/05/14 02:25:31;;;;;;;28.42;20.50;;;;;;;;;;2072886;28;20307;-50
2021/05/14 02:26:31;;;;;;;27.48;21.38;;;;;;;;;;2070912;28;20177;-51
2021/05/14 02:27:33;;;;;;;29.48;21.70;;;;;;;;;;2065290;28;20174;-49
2021/05/14 02:28:34;;;;;;;27.35;22.15;;;;;;;;;;2072918;28;20211;-50
2021/05/14 02:29:34;;;;;;;26.30;20.50;;;;;;;;;;2073035;28;20633;-49
2021/05/14 02:30:35;;;;;;;27.25;20.35;;;;;;;;;;2065333;28;20182;-51
2021/05/14 02:31:35;;;;;;;26.20;20.80;;;;;;;;;;2064440;28;20212;-51
2021/05/14 02:32:36;;;;;;;26.65;21.15;;;;;;;;;;2072645;28;20299;-50
2021/05/14 02:33:36;;;;;;;28.48;20.70;;;;;;;;;;2073143;28;20176;-48
2021/05/14 02:34:36;;;;;;;27.98;21.02;;;;;;;;;;2073389;28;20189;-48
2021/05/14 02:35:37;;;;;;;30.98;22.92;;;;;;;;;;2063877;28;20210;-53
2021/05/14 02:36:37;;;;;;;28.20;22.05;;;;;;;;;;2072596;28;20176;-50
2021/05/14 02:37:38;;;;;;;24.65;20.65;;;;;;;;;;2065172;28;20217;-48
2021/05/14 02:38:38;;;;;;;30.05;21.45;;;;;;;;;;2064177;28;20281;-49
2021/05/14 02:39:38;;;;;;;29.00;21.48;;;;;;;;;;2069220;28;20192;-49
2021/05/14 02:40:39;;;;;;;24.65;21.00;;;;;;;;;;2073568;28;20188;-49
2021/05/14 02:41:39;;;;;;;25.42;20.60;;;;;;;;;;2073109;28;20200;-52
2021/05/14 02:42:39;;;;;;;27.95;21.27;;;;;;;;;;2074286;28;20192;-51
2021/05/14 02:43:40;;;;;;;28.10;21.70;;;;;;;;;;2072740;28;20231;-47
2021/05/14 02:44:40;;;;;;;26.60;21.92;;;;;;;;;;2072370;28;20263;-49
2021/05/14 02:45:41;;;;;;;26.55;21.52;;;;;;;;;;2064206;28;20185;-51
2021/05/14 02:46:42;;;;;;;26.27;20.50;;;;;;;;;;2061873;28;20185;-50
2021/05/14 02:47:42;;;;;;;30.42;21.75;;;;;;;;;;2071500;28;20205;-49
2021/05/14 02:48:42;;;;;;;27.17;20.52;;;;;;;;;;2072665;28;20189;-49
2021/05/14 02:49:43;;;;;;;29.33;21.13;;;;;;;;;;2072989;28;20216;-49
2021/05/14 02:50:43;;;;;;;26.38;21.63;;;;;;;;;;2073396;28;20181;-49
2021/05/14 02:51:44;;;;;;;26.77;20.27;;;;;;;;;;2072236;28;20660;-54
2021/05/14 02:52:44;;;;;;;27.00;21.48;;;;;;;;;;2072985;28;20204;-51
2021/05/14 02:53:45;;;;;;;31.67;22.95;;;;;;;;;;2072821;28;20181;-51
2021/05/14 02:54:45;;;;;;;27.05;20.90;;;;;;;;;;2073179;28;20593;-53
2021/05/14 02:55:45;;;;;;;28.45;21.63;;;;;;;;;;2072894;28;20180;-52
2021/05/14 02:56:45;;;;;;;26.25;20.80;;;;;;;;;;2073351;28;20173;-48
2021/05/14 02:57:47;;;;;;;25.52;19.73;;;;;;;;;;2073143;28;20177;-47
2021/05/14 02:58:47;;;;;;;28.63;21.88;;;;;;;;;;2072481;28;20188;-50
2021/05/14 02:59:47;;;;;;;27.33;20.33;;;;;;;;;;2072788;28;20172;-48
2021/05/14 03:00:48;;;;;;;27.50;21.40;;;;;;;;;;2073556;28;20258;-49
2021/05/14 03:01:48;;;;;;;28.17;21.38;;;;;;;;;;2071391;28;20645;-52
2021/05/14 03:02:49;;;;;;;28.30;21.75;;;;;;;;;;2072977;28;20667;-52
2021/05/14 03:03:49;;;;;;;29.13;21.48;;;;;;;;;;2062093;28;20186;-51
2021/05/14 03:04:49;;;;;;;28.95;20.45;;;;;;;;;;2063781;28;20619;-51
2021/05/14 03:05:50;;;;;;;28.63;20.95;;;;;;;;;;2072897;28;20181;-48
2021/05/14 03:06:50;;;;;;;27.00;20.77;;;;;;;;;;2072324;28;20169;-50
2021/05/14 03:07:50;;;;;;;25.70;19.65;;;;;;;;;;2072688;28;20239;-48
2021/05/14 03:08:51;;;;;;;29.40;21.13;;;;;;;;;;2072460;28;20206;-53
2021/05/14 03:09:51;;;;;;;27.60;21.88;;;;;;;;;;2072529;28;20177;-50
2021/05/14 03:10:52;;;;;;;27.48;20.13;;;;;;;;;;2072177;28;20200;-50
2021/05/14 03:11:52;;;;;;;28.42;21.65;;;;;;;;;;2072763;28;20212;-49
2021/05/14 03:12:52;;;;;;;28.92;21.00;;;;;;;;;;2073002;28;20220;-53
2021/05/14 03:13:53;;;;;;;36.97;21.33;;;;;;;;;;2073649;28;20156;-49
2021/05/14 03:14:54;;;;;;;31.02;23.05;;;;;;;;;;2072012;28;20185;-47
2021/05/14 03:15:54;;;;;;;28.90;20.95;;;;;;;;;;2064248;28;20181;-48
2021/05/14 03:16:54;;;;;;;29.52;22.98;;;;;;;;;;2063844;28;20170;-50
2021/05/14 03:17:55;;;;;;;29.15;21.70;;;;;;;;;;2072135;28;20700;-48
2021/05/14 03:18:55;;;;;;;29.55;21.75;;;;;;;;;;2072050;28;20201;-51
2021/05/14 03:19:55;;;;;;;28.58;21.42;;;;;;;;;;2073664;28;20199;-48
2021/05/14 03:20:56;;;;;;;30.05;22.30;;;;;;;;;;2072774;28;20222;-51
2021/05/14 03:21:56;;;;;;;29.65;21.90;;;;;;;;;;2072000;28;20177;-50
2021/05/14 03:22:56;;;;;;;28.38;21.33;;;;;;;;;;2073354;28;20168;-50
2021/05/14 03:23:57;;;;;;;34.92;23.35;;;;;;;;;;2070744;28;20696;-49
2021/05/14 03:24:58;;;;;;;29.67;21.25;;;;;;;;;;2072213;28;20179;-56
2021/05/14 03:25:58;;;;;;;27.23;21.70;;;;;;;;;;2071220;28;20630;-52
2021/05/14 03:26:58;;;;;;;28.40;20.83;;;;;;;;;;2072230;28;20193;-53
2021/05/14 03:27:59;;;;;;;27.85;20.98;;;;;;;;;;2073538;28;20177;-50
2021/05/14 03:29:00;;;;;;;27.65;21.52;;;;;;;;;;2073091;28;20247;-49
2021/05/14 03:30:00;;;;;;;25.85;20.67;;;;;;;;;;2069279;28;20311;-54
2021/05/14 03:31:00;;;;;;;27.63;20.77;;;;;;;;;;2073683;28;20177;-52
2021/05/14 03:32:03;;;;;;;26.85;20.83;;;;;;;;;;2072496;28;20829;-50
2021/05/14 03:33:03;;;;;;;25.98;21.10;;;;;;;;;;2072092;28;20169;-47
2021/05/14 03:34:04;;;;;;;26.00;22.58;;;;;;;;;;2072859;28;20169;-50
2021/05/14 03:35:04;;;;;;;30.08;23.23;;;;;;;;;;2072973;28;20171;-50
2021/05/14 03:36:05;;;;;;;28.50;21.40;;;;;;;;;;2064070;28;20178;-51
2021/05/14 03:37:05;;;;;;;29.70;22.63;;;;;;;;;;2065031;28;20260;-48
2021/05/14 03:38:06;;;;;;;32.55;22.20;;;;;;;;;;2072173;28;20651;-48
2021/05/14 03:39:08;;;;;;;30.17;23.08;;;;;;;;;;2072315;28;20272;-50
2021/05/14 03:40:18;;;;;;;30.35;22.45;;;;;;;;;;2071252;28;20660;-52
2021/05/14 03:41:31;;;;;;;28.67;22.10;;;;;;;;;;2072809;28;20198;-51
2021/05/14 03:42:31;;;;;;;31.05;22.77;;;;;;;;;;2070907;28;20668;-52
2021/05/14 03:43:32;;;;;;;32.13;24.02;;;;;;;;;;2071935;28;20230;-50
2021/05/14 03:44:32;;;;;;;36.17;24.25;;;;;;;;;;2070968;28;20667;-52
2021/05/14 03:45:33;;;;;;;37.30;26.30;;;;;;;;;;2071104;28;20180;-49
2021/05/14 03:46:33;;;;;;;37.35;25.67;;;;;;;;;;2072317;28;20224;-50
2021/05/14 03:47:33;;;;;;;48.80;31.95;;;;;;;;;;2070397;28;20634;-51
2021/05/14 03:48:33;;;;;;;47.72;30.83;;;;;;;;;;2072384;28;20193;-51
2021/05/14 03:49:35;;;;;;;45.45;30.55;;;;;;;;;;2072704;28;20287;-48
2021/05/14 03:50:35;;;;;;;40.28;26.23;;;;;;;;;;2071399;28;20319;-52
2021/05/14 03:51:37;;;;;;;35.67;26.27;;;;;;;;;;2070451;28;20185;-50
2021/05/14 03:52:37;;;;;;;38.17;27.30;;;;;;;;;;2064095;28;20677;-51
2021/05/14 03:53:37;;;;;;;38.63;25.90;;;;;;;;;;2061236;28;20176;-46
2021/05/14 03:54:41;;;;;;;41.00;27.23;;;;;;;;;;2068214;28;20193;-52
2021/05/14 03:55:41;;;;;;;34.13;25.65;;;;;;;;;;2073205;28;20702;-50
2021/05/14 03:56:41;;;;;;;35.38;26.70;;;;;;;;;;2070304;28;20216;-51
2021/05/14 03:57:42;;;;;;;33.10;24.73;;;;;;;;;;2072906;28;20247;-53
2021/05/14 03:58:42;;;;;;;38.55;25.35;;;;;;;;;;2082403;22;20243;-55
2021/05/14 03:59:42;;;;;;;36.13;26.13;;;;;;;;;;2072536;28;20183;-51
2021/05/14 04:00:42;;;;;;;34.83;24.98;;;;;;;;;;2082664;28;20180;-53
2021/05/14 04:01:43;;;;;;;33.70;23.70;;;;;;;;;;2075145;28;20581;-51
2021/05/14 04:02:43;;;;;;;32.85;23.95;;;;;;;;;;2074817;28;20184;-52
2021/05/14 04:03:43;;;;;;;33.30;24.63;;;;;;;;;;2074346;28;20192;-51
2021/05/14 04:04:44;;;;;;;33.50;25.23;;;;;;;;;;2073881;28;20169;-52
2021/05/14 04:05:44;;;;;;;36.28;25.85;;;;;;;;;;2074878;28;20183;-50
2021/05/14 04:06:44;;;;;;;38.60;28.52;;;;;;;;;;2072340;28;20688;-52
2021/05/14 04:07:45;;;;;;;38.70;27.13;;;;;;;;;;2081632;28;20173;-53
2021/05/14 04:08:45;;;;;;;36.67;27.63;;;;;;;;;;2074681;28;20180;-53
2021/05/14 04:10:02;;;;;;;34.78;24.35;;;;;;;;;;2072610;28;20177;-53
2021/05/14 04:14:29;;;;;;;38.03;26.58;;;;;;;;;;2078503;28;20736;-54
2021/05/14 04:14:54;;;;;;;32.45;24.10;;;;;;;;;;2081829;28;20556;-51
2021/05/14 04:15:54;;;;;;;34.22;24.98;;;;;;;;;;2081271;28;20199;-58
2021/05/14 04:16:54;;;;;;;35.63;25.13;;;;;;;;;;2082252;28;20695;-51
2021/05/14 04:17:54;;;;;;;31.85;24.75;;;;;;;;;;2080259;28;20687;-56
2021/05/14 04:18:55;;;;;;;33.33;25.20;;;;;;;;;;2083209;28;20220;-52
2021/05/14 04:19:55;;;;;;;37.05;27.73;;;;;;;;;;2083125;28;20175;-53
2021/05/14 04:20:55;;;;;;;32.63;25.73;;;;;;;;;;2083739;28;20170;-51
2021/05/14 04:21:57;;;;;;;36.63;26.27;;;;;;;;;;2082733;28;20767;-55
2021/05/14 04:22:57;;;;;;;35.13;27.20;;;;;;;;;;2081644;28;20179;-51
2021/05/14 04:23:57;;;;;;;36.25;27.77;;;;;;;;;;2082224;28;20171;-51
2021/05/14 04:24:57;;;;;;;36.97;27.45;;;;;;;;;;2081230;28;20222;-52
2021/05/14 04:25:58;;;;;;;37.67;28.48;;;;;;;;;;2083857;28;20175;-51
2021/05/14 04:26:58;;;;;;;38.95;29.25;;;;;;;;;;2084018;28;20163;-54
2021/05/14 04:27:59;;;;;;;37.03;26.15;;;;;;;;;;2075212;28;20185;-52
2021/05/14 04:28:59;;;;;;;38.22;28.65;;;;;;;;;;2075805;28;20849;-51
2021/05/14 04:29:59;;;;;;;35.65;27.02;;;;;;;;;;2082976;28;20191;-52
2021/05/14 04:30:59;;;;;;;35.97;26.73;;;;;;;;;;2084178;28;20172;-53
2021/05/14 04:32:00;;;;;;;33.05;25.25;;;;;;;;;;2074058;28;20204;-50
2021/05/14 04:33:00;;;;;;;36.63;27.20;;;;;;;;;;2075225;28;20223;-56
2021/05/14 04:34:00;;;;;;;37.38;26.77;;;;;;;;;;2074252;28;20223;-54
2021/05/14 04:35:00;;;;;;;39.50;29.48;;;;;;;;;;2075669;28;20173;-51
2021/05/14 04:36:03;;;;;;;37.28;28.65;;;;;;;;;;2083096;28;20710;-51
2021/05/14 04:37:03;;;;;;;35.10;26.38;;;;;;;;;;2084448;28;20185;-51
2021/05/14 04:38:03;;;;;;;37.00;28.65;;;;;;;;;;2083698;28;20172;-52
2021/05/14 04:39:04;;;;;;;34.95;27.83;;;;;;;;;;2084371;28;20210;-50
2021/05/14 04:40:04;;;;;;;36.28;27.60;;;;;;;;;;2084177;28;20179;-50
2021/05/14 04:41:05;;;;;;;38.17;28.25;;;;;;;;;;2083373;28;20179;-50
2021/05/14 04:42:05;;;;;;;40.92;31.88;;;;;;;;;;2084104;28;20222;-52
2021/05/14 04:43:05;;;;;;;35.80;26.85;;;;;;;;;;2083791;28;20180;-51
2021/05/14 04:44:06;;;;;;;35.25;28.13;;;;;;;;;;2084178;28;20622;-51
2021/05/14 04:45:07;;;;;;;42.30;32.63;;;;;;;;;;2084093;28;20168;-51
2021/05/14 04:46:07;;;;;;;38.80;29.27;;;;;;;;;;2083839;28;20177;-54
2021/05/14 04:47:08;;;;;;;42.20;31.17;;;;;;;;;;2075446;28;20195;-53
2021/05/14 04:48:10;;;;;;;34.15;25.60;;;;;;;;;;2074907;28;20189;-51
2021/05/14 04:49:10;;;;;;;39.97;28.73;;;;;;;;;;2086030;28;20251;-52
2021/05/14 04:50:12;;;;;;;41.40;29.58;;;;;;;;;;2087334;28;20172;-54
2021/05/14 04:51:13;;;;;;;38.38;29.00;;;;;;;;;;2086248;28;20180;-52
2021/05/14 04:52:18;;;;;;;39.92;28.65;;;;;;;;;;2083525;28;20168;-56
2021/05/14 04:53:21;;;;;;;40.90;28.70;;;;;;;;;;2077160;28;20187;-54
2021/05/14 04:54:21;;;;;;;40.08;29.40;;;;;;;;;;2075003;28;20177;-55
2021/05/14 04:55:21;;;;;;;39.92;29.20;;;;;;;;;;2085475;28;20179;-56
2021/05/14 04:56:22;;;;;;;39.83;30.30;;;;;;;;;;2082824;28;20184;-56
2021/05/14 04:57:22;;;;;;;43.40;31.92;;;;;;;;;;2083543;28;20167;-54
2021/05/14 04:58:23;;;;;;;40.33;30.75;;;;;;;;;;2084170;28;20668;-55
2021/05/14 04:59:23;;;;;;;41.42;30.58;;;;;;;;;;2075870;28;20206;-54
2021/05/14 05:00:23;;;;;;;40.50;30.75;;;;;;;;;;2075588;28;20169;-54
2021/05/14 05:01:24;;;;;;;40.67;30.15;;;;;;;;;;2085294;28;20257;-56
2021/05/14 05:02:24;;;;;;;42.72;30.98;;;;;;;;;;2084532;28;20191;-56
2021/05/14 05:03:24;;;;;;;42.38;31.77;;;;;;;;;;2074488;28;20224;-55
2021/05/14 05:04:24;;;;;;;44.42;32.08;;;;;;;;;;2077930;28;20168;-56
2021/05/14 05:05:25;;;;;;;43.33;31.90;;;;;;;;;;2084370;28;20183;-54
2021/05/14 05:06:25;;;;;;;34.25;27.00;;;;;;;;;;2073622;28;20229;-51
2021/05/14 05:07:25;;;;;;;42.47;29.95;;;;;;;;;;2074438;28;20676;-55
2021/05/14 05:08:26;;;;;;;34.55;28.48;;;;;;;;;;2081928;28;20172;-53
2021/05/14 05:09:26;;;;;;;39.05;29.95;;;;;;;;;;2082612;28;20192;-50
2021/05/14 05:10:26;;;;;;;35.25;28.08;;;;;;;;;;2082444;28;20176;-52
2021/05/14 05:11:26;;;;;;;40.70;30.02;;;;;;;;;;2080618;28;20176;-51
2021/05/14 05:12:27;;;;;;;40.22;29.92;;;;;;;;;;2080961;28;20657;-54
2021/05/14 05:13:27;;;;;;;39.60;30.73;;;;;;;;;;2080336;28;20208;-53
2021/05/14 05:14:27;;;;;;;44.80;32.47;;;;;;;;;;2080582;28;20172;-50
2021/05/14 05:15:28;;;;;;;43.80;31.52;;;;;;;;;;2080977;28;20632;-54
2021/05/14 05:16:28;;;;;;;44.65;30.45;;;;;;;;;;2081390;28;20242;-53
2021/05/14 05:17:28;;;;;;;44.25;31.20;;;;;;;;;;2071987;28;20177;-52
2021/05/14 05:18:28;;;;;;;39.90;30.95;;;;;;;;;;2071792;28;20189;-56
2021/05/14 05:19:29;;;;;;;37.03;29.90;;;;;;;;;;2080986;28;20211;-54
2021/05/14 05:20:29;;;;;;;39.28;29.08;;;;;;;;;;2071873;28;20172;-54
2021/05/14 05:21:29;;;;;;;42.60;30.83;;;;;;;;;;2072423;28;20173;-50
2021/05/14 05:22:30;;;;;;;40.05;29.33;;;;;;;;;;2080480;28;20250;-52
2021/05/14 05:23:30;;;;;;;46.25;33.72;;;;;;;;;;2072412;28;20161;-54
2021/05/14 05:24:30;;;;;;;43.90;31.73;;;;;;;;;;2072419;28;20189;-50
2021/05/14 05:25:31;;;;;;;49.42;32.72;;;;;;;;;;2081606;28;20218;-52
2021/05/14 05:26:31;;;;;;;45.47;33.50;;;;;;;;;;2081272;28;20184;-53
2021/05/14 05:27:31;;;;;;;45.33;32.42;;;;;;;;;;2080773;28;20183;-51
2021/05/14 05:28:32;;;;;;;47.45;33.35;;;;;;;;;;2081387;28;20172;-52
2021/05/14 05:29:35;;;;;;;43.75;33.75;;;;;;;;;;2081687;28;20172;-50
2021/05/14 05:30:36;;;;;;;42.00;29.95;;;;;;;;;;2079776;28;20603;-55
2021/05/14 05:31:36;;;;;;;44.85;31.65;;;;;;;;;;2079776;28;20183;-48
2021/05/14 05:32:36;;;;;;;41.72;29.25;;;;;;;;;;2074022;28;20183;-49
2021/05/14 05:33:36;;;;;;;40.17;30.90;;;;;;;;;;2074214;28;20683;-52
2021/05/14 05:34:37;;;;;;;41.92;29.25;;;;;;;;;;2082933;28;20188;-49
2021/05/14 05:35:38;;;;;;;38.00;29.35;;;;;;;;;;2083285;28;20191;-53
2021/05/14 05:36:38;;;;;;;36.75;29.00;;;;;;;;;;2081975;28;20188;-54
2021/05/14 05:37:39;;;;;;;41.92;30.92;;;;;;;;;;2078684;28;20564;-52
2021/05/14 05:38:39;;;;;;;35.75;27.27;;;;;;;;;;2074910;28;20184;-50
2021/05/14 05:39:39;;;;;;;38.42;28.88;;;;;;;;;;2076123;28;20178;-49
2021/05/14 05:40:39;;;;;;;33.97;25.98;;;;;;;;;;2085274;28;20188;-50
2021/05/14 05:41:40;;;;;;;38.58;26.73;;;;;;;;;;2085023;28;20176;-55
2021/05/14 05:42:40;;;;;;;33.60;26.00;;;;;;;;;;2077669;28;20178;-51
2021/05/14 05:43:41;;;;;;;31.80;25.70;;;;;;;;;;2070441;28;20184;-52
2021/05/14 05:44:41;;;;;;;31.02;24.33;;;;;;;;;;2081973;28;20280;-51
2021/05/14 05:45:41;;;;;;;31.25;24.13;;;;;;;;;;2076654;28;20321;-49
2021/05/14 05:46:41;;;;;;;30.85;24.92;;;;;;;;;;2081888;28;20182;-50
2021/05/14 05:47:42;;;;;;;34.10;25.60;;;;;;;;;;2082054;28;20180;-50
2021/05/14 05:48:45;;;;;;;32.33;24.45;;;;;;;;;;2077458;28;20731;-55
2021/05/14 05:49:46;;;;;;;30.63;24.05;;;;;;;;;;2082683;28;20180;-54
2021/05/14 05:50:46;;;;;;;27.25;23.40;;;;;;;;;;2074179;28;20173;-55
2021/05/14 05:51:47;;;;;;;28.13;22.55;;;;;;;;;;2072976;28;20661;-55
2021/05/14 05:52:47;;;;;;;30.60;23.83;;;;;;;;;;2087700;28;20551;-56
2021/05/14 05:53:47;;;;;;;32.13;22.40;;;;;;;;;;2074723;28;20228;-56
2021/05/14 05:54:48;;;;;;;24.88;20.73;;;;;;;;;;2074079;28;20188;-51
2021/05/14 05:55:48;;;;;;;25.88;20.00;;;;;;;;;;2080520;28;20218;-54
2021/05/14 05:56:50;;;;;;;25.85;20.48;;;;;;;;;;2080086;28;20212;-50
2021/05/14 05:57:50;;;;;;;26.05;20.35;;;;;;;;;;2074390;28;20547;-52